sensor_id;sensor_type;location;lat;lon;timestamp;P1;durP1;ratioP1;P2;durP2;ratioP2
11827;SDS011;5971;49.646;8.568;2023-11-21T00:02:11;6.03;;;2.40;;
11827;SDS011;5971;49.646;8.568;2023-11-21T00:05:13;7.28;;;2.25;;
11827;SDS011;5971;49.646;8.568;2023-11-21T00:08:15;5.55;;;2.38;;
11827;SDS011;5971;49.646;8.568;2023-11-21T00:11:16;8.75;;;2.88;;
11827;SDS011;5971;49.646;8.568;2023-11-21T00:14:18;9.43;;;2.80;;
11827;SDS011;5971;49.646;8.568;2023-11-21T00:17:19;5.75;;;2.47;;
11827;SDS011;5971;49.646;8.568;2023-11-21T00:20:21;4.93;;;2.33;;
11827;SDS011;5971;49.646;8.568;2023-11-21T00:23:23;5.97;;;2.72;;
11827;SDS011;5971;49.646;8.568;2023-11-21T00:26:24;9.05;;;2.90;;
11827;SDS011;5971;49.646;8.568;2023-11-21T00:29:25;6.25;;;2.67;;
11827;SDS011;5971;49.646;8.568;2023-11-21T00:32:27;7.28;;;2.30;;
11827;SDS011;5971;49.646;8.568;2023-11-21T00:35:28;5.30;;;2.22;;
11827;SDS011;5971;49.646;8.568;2023-11-21T00:38:30;5.03;;;2.25;;
11827;SDS011;5971;49.646;8.568;2023-11-21T00:41:31;6.97;;;2.35;;
11827;SDS011;5971;49.646;8.568;2023-11-21T00:44:33;9.13;;;2.85;;
11827;SDS011;5971;49.646;8.568;2023-11-21T00:47:35;5.35;;;2.67;;
11827;SDS011;5971;49.646;8.568;2023-11-21T00:50:36;5.93;;;2.47;;
11827;SDS011;5971;49.646;8.568;2023-11-21T00:53:38;8.15;;;2.95;;
11827;SDS011;5971;49.646;8.568;2023-11-21T00:56:39;8.32;;;2.63;;
11827;SDS011;5971;49.646;8.568;2023-11-21T00:59:41;8.23;;;3.10;;
11827;SDS011;5971;49.646;8.568;2023-11-21T01:02:45;7.72;;;3.17;;
11827;SDS011;5971;49.646;8.568;2023-11-21T01:05:47;8.45;;;2.75;;
11827;SDS011;5971;49.646;8.568;2023-11-21T01:08:51;5.68;;;2.78;;
11827;SDS011;5971;49.646;8.568;2023-11-21T01:11:52;5.93;;;2.53;;
11827;SDS011;5971;49.646;8.568;2023-11-21T01:14:54;8.27;;;2.95;;
11827;SDS011;5971;49.646;8.568;2023-11-21T01:17:56;7.03;;;2.83;;
11827;SDS011;5971;49.646;8.568;2023-11-21T01:20:57;4.95;;;2.28;;
11827;SDS011;5971;49.646;8.568;2023-11-21T01:23:58;6.35;;;3.10;;
11827;SDS011;5971;49.646;8.568;2023-11-21T01:27:00;6.55;;;2.80;;
11827;SDS011;5971;49.646;8.568;2023-11-21T01:30:01;5.85;;;2.60;;
11827;SDS011;5971;49.646;8.568;2023-11-21T01:33:03;6.00;;;2.13;;
11827;SDS011;5971;49.646;8.568;2023-11-21T01:36:04;6.10;;;2.67;;
11827;SDS011;5971;49.646;8.568;2023-11-21T01:39:06;7.65;;;2.50;;
11827;SDS011;5971;49.646;8.568;2023-11-21T01:42:10;10.52;;;2.53;;
11827;SDS011;5971;49.646;8.568;2023-11-21T01:45:14;8.48;;;2.92;;
11827;SDS011;5971;49.646;8.568;2023-11-21T01:48:15;8.25;;;2.50;;
11827;SDS011;5971;49.646;8.568;2023-11-21T01:51:18;5.47;;;2.38;;
11827;SDS011;5971;49.646;8.568;2023-11-21T01:54:19;6.65;;;2.67;;
11827;SDS011;5971;49.646;8.568;2023-11-21T01:57:21;9.40;;;2.92;;
11827;SDS011;5971;49.646;8.568;2023-11-21T02:00:23;7.07;;;2.95;;
11827;SDS011;5971;49.646;8.568;2023-11-21T02:03:25;6.82;;;2.92;;
11827;SDS011;5971;49.646;8.568;2023-11-21T02:06:27;7.40;;;2.85;;
11827;SDS011;5971;49.646;8.568;2023-11-21T02:09:32;7.90;;;2.85;;
11827;SDS011;5971;49.646;8.568;2023-11-21T02:12:35;6.80;;;2.88;;
11827;SDS011;5971;49.646;8.568;2023-11-21T02:15:37;8.07;;;2.75;;
11827;SDS011;5971;49.646;8.568;2023-11-21T02:18:39;10.30;;;3.03;;
11827;SDS011;5971;49.646;8.568;2023-11-21T02:21:41;10.65;;;3.13;;
11827;SDS011;5971;49.646;8.568;2023-11-21T02:24:43;9.55;;;3.50;;
11827;SDS011;5971;49.646;8.568;2023-11-21T02:27:44;6.70;;;3.05;;
11827;SDS011;5971;49.646;8.568;2023-11-21T02:30:49;10.85;;;3.17;;
11827;SDS011;5971;49.646;8.568;2023-11-21T02:33:56;9.55;;;3.20;;
11827;SDS011;5971;49.646;8.568;2023-11-21T02:36:58;8.52;;;3.30;;
11827;SDS011;5971;49.646;8.568;2023-11-21T02:39:59;7.95;;;3.03;;
11827;SDS011;5971;49.646;8.568;2023-11-21T02:43:00;10.63;;;3.30;;
11827;SDS011;5971;49.646;8.568;2023-11-21T02:46:02;9.90;;;3.10;;
11827;SDS011;5971;49.646;8.568;2023-11-21T02:49:03;7.40;;;3.03;;
11827;SDS011;5971;49.646;8.568;2023-11-21T02:52:05;6.20;;;2.90;;
11827;SDS011;5971;49.646;8.568;2023-11-21T02:55:06;7.93;;;2.97;;
11827;SDS011;5971;49.646;8.568;2023-11-21T02:58:10;6.40;;;3.13;;
11827;SDS011;5971;49.646;8.568;2023-11-21T03:01:11;5.55;;;3.17;;
11827;SDS011;5971;49.646;8.568;2023-11-21T03:04:14;7.28;;;3.13;;
11827;SDS011;5971;49.646;8.568;2023-11-21T03:07:19;5.47;;;3.03;;
11827;SDS011;5971;49.646;8.568;2023-11-21T03:10:20;10.15;;;3.95;;
11827;SDS011;5971;49.646;8.568;2023-11-21T03:13:22;7.90;;;3.00;;
11827;SDS011;5971;49.646;8.568;2023-11-21T03:16:23;9.52;;;3.30;;
11827;SDS011;5971;49.646;8.568;2023-11-21T03:19:25;11.38;;;3.42;;
11827;SDS011;5971;49.646;8.568;2023-11-21T03:22:26;6.68;;;3.13;;
11827;SDS011;5971;49.646;8.568;2023-11-21T03:25:28;7.00;;;3.22;;
11827;SDS011;5971;49.646;8.568;2023-11-21T03:28:29;10.27;;;3.45;;
11827;SDS011;5971;49.646;8.568;2023-11-21T03:31:34;8.27;;;3.72;;
11827;SDS011;5971;49.646;8.568;2023-11-21T03:34:35;8.40;;;3.63;;
11827;SDS011;5971;49.646;8.568;2023-11-21T03:37:37;10.18;;;4.10;;
11827;SDS011;5971;49.646;8.568;2023-11-21T03:40:42;10.18;;;3.63;;
11827;SDS011;5971;49.646;8.568;2023-11-21T03:43:43;11.15;;;3.63;;
11827;SDS011;5971;49.646;8.568;2023-11-21T03:46:45;7.95;;;3.55;;
11827;SDS011;5971;49.646;8.568;2023-11-21T03:49:46;8.70;;;3.63;;
11827;SDS011;5971;49.646;8.568;2023-11-21T03:52:47;10.13;;;3.90;;
11827;SDS011;5971;49.646;8.568;2023-11-21T03:55:49;9.45;;;3.72;;
11827;SDS011;5971;49.646;8.568;2023-11-21T03:58:51;9.00;;;3.90;;
11827;SDS011;5971;49.646;8.568;2023-11-21T04:01:54;8.73;;;4.00;;
11827;SDS011;5971;49.646;8.568;2023-11-21T04:04:56;8.55;;;4.13;;
11827;SDS011;5971;49.646;8.568;2023-11-21T04:07:57;9.52;;;3.72;;
11827;SDS011;5971;49.646;8.568;2023-11-21T04:10:59;10.15;;;4.00;;
11827;SDS011;5971;49.646;8.568;2023-11-21T04:14:00;7.95;;;3.72;;
11827;SDS011;5971;49.646;8.568;2023-11-21T04:17:01;8.13;;;3.75;;
11827;SDS011;5971;49.646;8.568;2023-11-21T04:20:05;10.82;;;4.55;;
11827;SDS011;5971;49.646;8.568;2023-11-21T04:23:09;7.95;;;3.72;;
11827;SDS011;5971;49.646;8.568;2023-11-21T04:26:11;10.63;;;4.47;;
11827;SDS011;5971;49.646;8.568;2023-11-21T04:29:13;8.20;;;3.92;;
11827;SDS011;5971;49.646;8.568;2023-11-21T04:32:14;10.50;;;4.15;;
11827;SDS011;5971;49.646;8.568;2023-11-21T04:35:16;12.07;;;4.22;;
11827;SDS011;5971;49.646;8.568;2023-11-21T04:38:17;6.05;;;3.75;;
11827;SDS011;5971;49.646;8.568;2023-11-21T04:41:20;11.77;;;5.40;;
11827;SDS011;5971;49.646;8.568;2023-11-21T04:44:21;12.13;;;4.50;;
11827;SDS011;5971;49.646;8.568;2023-11-21T04:47:22;9.55;;;3.95;;
11827;SDS011;5971;49.646;8.568;2023-11-21T04:50:24;9.63;;;4.25;;
11827;SDS011;5971;49.646;8.568;2023-11-21T04:53:28;10.98;;;4.00;;
11827;SDS011;5971;49.646;8.568;2023-11-21T04:56:29;8.55;;;4.32;;
11827;SDS011;5971;49.646;8.568;2023-11-21T04:59:30;10.95;;;4.03;;
11827;SDS011;5971;49.646;8.568;2023-11-21T05:02:32;9.57;;;3.75;;
11827;SDS011;5971;49.646;8.568;2023-11-21T05:05:36;8.27;;;3.78;;
11827;SDS011;5971;49.646;8.568;2023-11-21T05:08:38;10.75;;;3.85;;
11827;SDS011;5971;49.646;8.568;2023-11-21T05:11:39;8.75;;;3.58;;
11827;SDS011;5971;49.646;8.568;2023-11-21T05:14:42;8.27;;;3.83;;
11827;SDS011;5971;49.646;8.568;2023-11-21T05:17:44;8.63;;;3.90;;
11827;SDS011;5971;49.646;8.568;2023-11-21T05:20:46;11.38;;;3.60;;
11827;SDS011;5971;49.646;8.568;2023-11-21T05:23:48;8.32;;;3.80;;
11827;SDS011;5971;49.646;8.568;2023-11-21T05:26:50;10.90;;;3.67;;
11827;SDS011;5971;49.646;8.568;2023-11-21T05:29:51;8.35;;;3.40;;
11827;SDS011;5971;49.646;8.568;2023-11-21T05:32:52;6.90;;;3.28;;
11827;SDS011;5971;49.646;8.568;2023-11-21T05:35:54;11.05;;;3.60;;
11827;SDS011;5971;49.646;8.568;2023-11-21T05:38:55;9.98;;;3.60;;
11827;SDS011;5971;49.646;8.568;2023-11-21T05:41:57;12.20;;;3.83;;
11827;SDS011;5971;49.646;8.568;2023-11-21T05:44:58;9.85;;;4.45;;
11827;SDS011;5971;49.646;8.568;2023-11-21T05:48:00;8.90;;;3.90;;
11827;SDS011;5971;49.646;8.568;2023-11-21T05:51:01;9.10;;;4.13;;
11827;SDS011;5971;49.646;8.568;2023-11-21T05:54:03;9.38;;;4.50;;
11827;SDS011;5971;49.646;8.568;2023-11-21T05:57:04;9.18;;;3.97;;
11827;SDS011;5971;49.646;8.568;2023-11-21T06:00:06;11.05;;;4.13;;
11827;SDS011;5971;49.646;8.568;2023-11-21T06:03:23;8.25;;;3.95;;
11827;SDS011;5971;49.646;8.568;2023-11-21T06:06:25;11.52;;;5.03;;
11827;SDS011;5971;49.646;8.568;2023-11-21T06:09:26;12.27;;;4.85;;
11827;SDS011;5971;49.646;8.568;2023-11-21T06:12:28;12.27;;;4.93;;
11827;SDS011;5971;49.646;8.568;2023-11-21T06:15:30;11.52;;;4.82;;
11827;SDS011;5971;49.646;8.568;2023-11-21T06:18:31;9.57;;;4.30;;
11827;SDS011;5971;49.646;8.568;2023-11-21T06:21:32;10.45;;;4.78;;
11827;SDS011;5971;49.646;8.568;2023-11-21T06:24:35;13.30;;;5.35;;
11827;SDS011;5971;49.646;8.568;2023-11-21T06:27:37;13.07;;;4.95;;
11827;SDS011;5971;49.646;8.568;2023-11-21T06:30:40;9.75;;;5.05;;
11827;SDS011;5971;49.646;8.568;2023-11-21T06:33:41;12.68;;;4.63;;
11827;SDS011;5971;49.646;8.568;2023-11-21T06:36:42;10.60;;;4.38;;
11827;SDS011;5971;49.646;8.568;2023-11-21T06:39:44;13.30;;;5.47;;
11827;SDS011;5971;49.646;8.568;2023-11-21T06:42:45;14.07;;;5.63;;
11827;SDS011;5971;49.646;8.568;2023-11-21T06:45:48;12.55;;;5.57;;
11827;SDS011;5971;49.646;8.568;2023-11-21T06:48:49;10.77;;;5.18;;
11827;SDS011;5971;49.646;8.568;2023-11-21T06:51:50;12.20;;;5.50;;
11827;SDS011;5971;49.646;8.568;2023-11-21T06:54:52;10.55;;;5.40;;
11827;SDS011;5971;49.646;8.568;2023-11-21T06:57:53;11.07;;;5.30;;
11827;SDS011;5971;49.646;8.568;2023-11-21T07:00:54;12.77;;;5.47;;
11827;SDS011;5971;49.646;8.568;2023-11-21T07:03:57;9.82;;;4.32;;
11827;SDS011;5971;49.646;8.568;2023-11-21T07:06:58;12.45;;;4.90;;
11827;SDS011;5971;49.646;8.568;2023-11-21T07:09:59;12.48;;;5.93;;
11827;SDS011;5971;49.646;8.568;2023-11-21T07:13:04;11.60;;;4.90;;
11827;SDS011;5971;49.646;8.568;2023-11-21T07:16:06;9.55;;;4.55;;
11827;SDS011;5971;49.646;8.568;2023-11-21T07:19:07;9.23;;;4.40;;
11827;SDS011;5971;49.646;8.568;2023-11-21T07:22:09;9.35;;;3.72;;
11827;SDS011;5971;49.646;8.568;2023-11-21T07:25:10;7.78;;;3.85;;
11827;SDS011;5971;49.646;8.568;2023-11-21T07:28:12;9.02;;;3.88;;
11827;SDS011;5971;49.646;8.568;2023-11-21T07:31:13;7.40;;;3.22;;
11827;SDS011;5971;49.646;8.568;2023-11-21T07:34:15;4.63;;;2.28;;
11827;SDS011;5971;49.646;8.568;2023-11-21T07:37:16;4.93;;;2.40;;
11827;SDS011;5971;49.646;8.568;2023-11-21T07:40:17;5.15;;;3.40;;
11827;SDS011;5971;49.646;8.568;2023-11-21T07:43:19;5.15;;;2.35;;
11827;SDS011;5971;49.646;8.568;2023-11-21T07:46:20;4.13;;;2.30;;
11827;SDS011;5971;49.646;8.568;2023-11-21T07:49:22;3.13;;;1.80;;
11827;SDS011;5971;49.646;8.568;2023-11-21T07:52:24;3.50;;;1.85;;
11827;SDS011;5971;49.646;8.568;2023-11-21T07:55:25;4.07;;;2.20;;
11827;SDS011;5971;49.646;8.568;2023-11-21T07:58:28;2.95;;;1.48;;
11827;SDS011;5971;49.646;8.568;2023-11-21T08:01:29;5.03;;;2.05;;
11827;SDS011;5971;49.646;8.568;2023-11-21T08:04:31;3.55;;;1.85;;
11827;SDS011;5971;49.646;8.568;2023-11-21T08:07:35;4.30;;;2.03;;
11827;SDS011;5971;49.646;8.568;2023-11-21T08:10:36;4.13;;;2.00;;
11827;SDS011;5971;49.646;8.568;2023-11-21T08:13:38;4.15;;;2.03;;
11827;SDS011;5971;49.646;8.568;2023-11-21T08:16:39;5.32;;;2.03;;
11827;SDS011;5971;49.646;8.568;2023-11-21T08:19:41;3.85;;;2.50;;
11827;SDS011;5971;49.646;8.568;2023-11-21T08:22:43;3.17;;;1.60;;
11827;SDS011;5971;49.646;8.568;2023-11-21T08:25:44;4.10;;;1.98;;
11827;SDS011;5971;49.646;8.568;2023-11-21T08:28:46;4.10;;;2.13;;
11827;SDS011;5971;49.646;8.568;2023-11-21T08:31:48;4.55;;;2.13;;
11827;SDS011;5971;49.646;8.568;2023-11-21T08:34:50;4.38;;;2.15;;
11827;SDS011;5971;49.646;8.568;2023-11-21T08:37:53;3.53;;;2.13;;
11827;SDS011;5971;49.646;8.568;2023-11-21T08:40:55;3.97;;;2.33;;
11827;SDS011;5971;49.646;8.568;2023-11-21T08:43:56;3.97;;;2.30;;
11827;SDS011;5971;49.646;8.568;2023-11-21T08:46:59;5.68;;;2.25;;
11827;SDS011;5971;49.646;8.568;2023-11-21T08:50:01;5.50;;;2.75;;
11827;SDS011;5971;49.646;8.568;2023-11-21T08:53:02;5.82;;;3.13;;
11827;SDS011;5971;49.646;8.568;2023-11-21T08:56:04;6.60;;;3.10;;
11827;SDS011;5971;49.646;8.568;2023-11-21T08:59:05;7.35;;;3.42;;
11827;SDS011;5971;49.646;8.568;2023-11-21T09:02:09;9.25;;;3.58;;
11827;SDS011;5971;49.646;8.568;2023-11-21T09:05:10;8.40;;;4.30;;
11827;SDS011;5971;49.646;8.568;2023-11-21T09:08:12;7.63;;;4.18;;
11827;SDS011;5971;49.646;8.568;2023-11-21T09:11:13;9.80;;;5.05;;
11827;SDS011;5971;49.646;8.568;2023-11-21T09:14:15;8.55;;;4.32;;
11827;SDS011;5971;49.646;8.568;2023-11-21T09:17:17;9.40;;;4.63;;
11827;SDS011;5971;49.646;8.568;2023-11-21T09:20:18;10.48;;;4.80;;
11827;SDS011;5971;49.646;8.568;2023-11-21T09:23:24;14.07;;;5.68;;
11827;SDS011;5971;49.646;8.568;2023-11-21T09:26:25;8.88;;;4.45;;
11827;SDS011;5971;49.646;8.568;2023-11-21T09:29:27;12.65;;;6.18;;
11827;SDS011;5971;49.646;8.568;2023-11-21T09:32:30;10.80;;;5.82;;
11827;SDS011;5971;49.646;8.568;2023-11-21T09:35:31;10.88;;;5.13;;
11827;SDS011;5971;49.646;8.568;2023-11-21T09:38:32;14.15;;;6.05;;
11827;SDS011;5971;49.646;8.568;2023-11-21T09:41:37;14.05;;;5.75;;
11827;SDS011;5971;49.646;8.568;2023-11-21T09:45:03;13.73;;;5.60;;
11827;SDS011;5971;49.646;8.568;2023-11-21T09:48:05;13.70;;;5.85;;
11827;SDS011;5971;49.646;8.568;2023-11-21T09:51:08;12.73;;;5.57;;
11827;SDS011;5971;49.646;8.568;2023-11-21T09:54:10;12.18;;;5.03;;
11827;SDS011;5971;49.646;8.568;2023-11-21T09:57:12;10.75;;;5.03;;
11827;SDS011;5971;49.646;8.568;2023-11-21T10:00:14;10.82;;;4.95;;
11827;SDS011;5971;49.646;8.568;2023-11-21T10:03:18;9.43;;;4.63;;
11827;SDS011;5971;49.646;8.568;2023-11-21T10:06:20;9.70;;;5.00;;
11827;SDS011;5971;49.646;8.568;2023-11-21T10:09:21;10.30;;;4.63;;
11827;SDS011;5971;49.646;8.568;2023-11-21T10:12:23;10.63;;;4.78;;
11827;SDS011;5971;49.646;8.568;2023-11-21T10:15:25;10.75;;;5.22;;
11827;SDS011;5971;49.646;8.568;2023-11-21T10:18:26;10.15;;;4.93;;
11827;SDS011;5971;49.646;8.568;2023-11-21T10:21:28;11.32;;;5.30;;
11827;SDS011;5971;49.646;8.568;2023-11-21T10:24:29;11.10;;;5.93;;
11827;SDS011;5971;49.646;8.568;2023-11-21T10:27:41;10.48;;;5.47;;
11827;SDS011;5971;49.646;8.568;2023-11-21T10:30:44;10.73;;;4.40;;
11827;SDS011;5971;49.646;8.568;2023-11-21T10:33:45;11.75;;;5.00;;
11827;SDS011;5971;49.646;8.568;2023-11-21T10:36:47;9.27;;;4.03;;
11827;SDS011;5971;49.646;8.568;2023-11-21T10:39:48;9.07;;;4.72;;
11827;SDS011;5971;49.646;8.568;2023-11-21T10:42:49;9.30;;;3.85;;
11827;SDS011;5971;49.646;8.568;2023-11-21T10:45:51;9.77;;;3.97;;
11827;SDS011;5971;49.646;8.568;2023-11-21T10:48:53;6.07;;;3.08;;
11827;SDS011;5971;49.646;8.568;2023-11-21T10:51:57;7.45;;;3.55;;
11827;SDS011;5971;49.646;8.568;2023-11-21T10:54:58;7.20;;;3.15;;
11827;SDS011;5971;49.646;8.568;2023-11-21T10:58:01;9.23;;;3.63;;
11827;SDS011;5971;49.646;8.568;2023-11-21T11:01:03;7.95;;;3.50;;
11827;SDS011;5971;49.646;8.568;2023-11-21T11:04:07;7.13;;;3.70;;
11827;SDS011;5971;49.646;8.568;2023-11-21T11:07:10;7.15;;;3.45;;
11827;SDS011;5971;49.646;8.568;2023-11-21T11:10:13;9.35;;;4.13;;
11827;SDS011;5971;49.646;8.568;2023-11-21T11:13:16;7.18;;;3.97;;
11827;SDS011;5971;49.646;8.568;2023-11-21T11:16:17;6.35;;;3.58;;
11827;SDS011;5971;49.646;8.568;2023-11-21T11:19:19;5.70;;;3.60;;
11827;SDS011;5971;49.646;8.568;2023-11-21T11:25:47;5.95;;;3.22;;
11827;SDS011;5971;49.646;8.568;2023-11-21T11:28:57;7.65;;;2.83;;
11827;SDS011;5971;49.646;8.568;2023-11-21T11:32:09;5.68;;;3.50;;
11827;SDS011;5971;49.646;8.568;2023-11-21T11:35:19;6.82;;;3.45;;
11827;SDS011;5971;49.646;8.568;2023-11-21T11:38:24;9.55;;;3.97;;
11827;SDS011;5971;49.646;8.568;2023-11-21T11:41:29;6.30;;;3.28;;
11827;SDS011;5971;49.646;8.568;2023-11-21T11:47:47;5.93;;;3.45;;
11827;SDS011;5971;49.646;8.568;2023-11-21T11:54:35;5.00;;;2.65;;
11827;SDS011;5971;49.646;8.568;2023-11-21T11:57:37;6.00;;;2.88;;
11827;SDS011;5971;49.646;8.568;2023-11-21T12:00:39;5.50;;;3.05;;
11827;SDS011;5971;49.646;8.568;2023-11-21T12:03:42;5.22;;;2.83;;
11827;SDS011;5971;49.646;8.568;2023-11-21T12:06:44;4.95;;;2.80;;
11827;SDS011;5971;49.646;8.568;2023-11-21T12:09:46;5.43;;;3.22;;
11827;SDS011;5971;49.646;8.568;2023-11-21T12:12:48;4.70;;;2.83;;
11827;SDS011;5971;49.646;8.568;2023-11-21T12:15:50;4.65;;;2.50;;
11827;SDS011;5971;49.646;8.568;2023-11-21T12:18:52;4.20;;;2.90;;
11827;SDS011;5971;49.646;8.568;2023-11-21T12:21:54;5.05;;;2.72;;
11827;SDS011;5971;49.646;8.568;2023-11-21T12:24:57;4.43;;;2.15;;
11827;SDS011;5971;49.646;8.568;2023-11-21T12:28:00;4.20;;;1.98;;
11827;SDS011;5971;49.646;8.568;2023-11-21T12:31:02;3.42;;;1.90;;
11827;SDS011;5971;49.646;8.568;2023-11-21T12:34:15;4.70;;;2.05;;
11827;SDS011;5971;49.646;8.568;2023-11-21T12:37:16;5.13;;;2.35;;
11827;SDS011;5971;49.646;8.568;2023-11-21T12:40:19;4.30;;;2.58;;
11827;SDS011;5971;49.646;8.568;2023-11-21T12:43:20;4.45;;;2.53;;
11827;SDS011;5971;49.646;8.568;2023-11-21T12:46:22;4.25;;;2.42;;
11827;SDS011;5971;49.646;8.568;2023-11-21T12:49:23;5.55;;;2.80;;
11827;SDS011;5971;49.646;8.568;2023-11-21T12:52:25;6.28;;;2.70;;
11827;SDS011;5971;49.646;8.568;2023-11-21T12:55:29;5.60;;;2.22;;
11827;SDS011;5971;49.646;8.568;2023-11-21T12:58:31;4.05;;;2.15;;
11827;SDS011;5971;49.646;8.568;2023-11-21T13:01:34;5.90;;;2.00;;
11827;SDS011;5971;49.646;8.568;2023-11-21T13:04:37;4.40;;;2.40;;
11827;SDS011;5971;49.646;8.568;2023-11-21T13:07:41;5.50;;;2.65;;
11827;SDS011;5971;49.646;8.568;2023-11-21T13:10:52;5.13;;;1.98;;
11827;SDS011;5971;49.646;8.568;2023-11-21T13:13:55;4.25;;;2.13;;
11827;SDS011;5971;49.646;8.568;2023-11-21T13:16:57;6.30;;;2.40;;
11827;SDS011;5971;49.646;8.568;2023-11-21T13:19:59;5.35;;;2.88;;
11827;SDS011;5971;49.646;8.568;2023-11-21T13:23:06;6.43;;;2.58;;
11827;SDS011;5971;49.646;8.568;2023-11-21T13:26:08;5.90;;;3.10;;
11827;SDS011;5971;49.646;8.568;2023-11-21T13:29:10;3.60;;;2.03;;
11827;SDS011;5971;49.646;8.568;2023-11-21T13:32:14;5.90;;;2.03;;
11827;SDS011;5971;49.646;8.568;2023-11-21T13:35:17;5.30;;;1.95;;
11827;SDS011;5971;49.646;8.568;2023-11-21T13:38:22;4.78;;;2.03;;
11827;SDS011;5971;49.646;8.568;2023-11-21T13:41:31;6.35;;;2.10;;
11827;SDS011;5971;49.646;8.568;2023-11-21T13:44:33;4.07;;;2.35;;
11827;SDS011;5971;49.646;8.568;2023-11-21T13:47:39;5.78;;;2.33;;
11827;SDS011;5971;49.646;8.568;2023-11-21T13:50:41;6.80;;;2.13;;
11827;SDS011;5971;49.646;8.568;2023-11-21T13:53:50;6.85;;;2.53;;
11827;SDS011;5971;49.646;8.568;2023-11-21T13:56:53;4.75;;;2.53;;
11827;SDS011;5971;49.646;8.568;2023-11-21T13:59:56;7.95;;;2.35;;
11827;SDS011;5971;49.646;8.568;2023-11-21T14:03:00;5.63;;;2.58;;
11827;SDS011;5971;49.646;8.568;2023-11-21T14:06:02;7.15;;;2.30;;
11827;SDS011;5971;49.646;8.568;2023-11-21T14:09:09;6.40;;;2.95;;
11827;SDS011;5971;49.646;8.568;2023-11-21T14:12:14;6.53;;;2.75;;
11827;SDS011;5971;49.646;8.568;2023-11-21T14:15:17;6.88;;;2.50;;
11827;SDS011;5971;49.646;8.568;2023-11-21T14:18:20;7.18;;;2.83;;
11827;SDS011;5971;49.646;8.568;2023-11-21T14:21:28;5.82;;;2.67;;
11827;SDS011;5971;49.646;8.568;2023-11-21T14:24:29;9.52;;;3.38;;
11827;SDS011;5971;49.646;8.568;2023-11-21T14:27:33;9.90;;;3.63;;
11827;SDS011;5971;49.646;8.568;2023-11-21T14:30:37;9.23;;;3.13;;
11827;SDS011;5971;49.646;8.568;2023-11-21T14:33:40;4.85;;;2.60;;
11827;SDS011;5971;49.646;8.568;2023-11-21T14:36:41;7.88;;;2.63;;
11827;SDS011;5971;49.646;8.568;2023-11-21T14:39:44;5.90;;;2.92;;
11827;SDS011;5971;49.646;8.568;2023-11-21T14:42:49;8.48;;;3.45;;
11827;SDS011;5971;49.646;8.568;2023-11-21T14:45:50;7.28;;;3.10;;
11827;SDS011;5971;49.646;8.568;2023-11-21T14:48:52;8.23;;;3.90;;
11827;SDS011;5971;49.646;8.568;2023-11-21T14:52:04;7.38;;;3.42;;
11827;SDS011;5971;49.646;8.568;2023-11-21T14:55:09;7.28;;;3.33;;
11827;SDS011;5971;49.646;8.568;2023-11-21T14:58:29;10.15;;;3.28;;
11827;SDS011;5971;49.646;8.568;2023-11-21T15:01:33;7.90;;;3.97;;
11827;SDS011;5971;49.646;8.568;2023-11-21T15:04:46;9.77;;;3.75;;
11827;SDS011;5971;49.646;8.568;2023-11-21T15:07:47;8.48;;;3.55;;
11827;SDS011;5971;49.646;8.568;2023-11-21T15:10:51;12.35;;;4.00;;
11827;SDS011;5971;49.646;8.568;2023-11-21T15:13:56;7.63;;;3.75;;
11827;SDS011;5971;49.646;8.568;2023-11-21T15:16:58;7.70;;;4.13;;
11827;SDS011;5971;49.646;8.568;2023-11-21T15:20:02;7.63;;;3.00;;
11827;SDS011;5971;49.646;8.568;2023-11-21T15:23:04;7.30;;;2.85;;
11827;SDS011;5971;49.646;8.568;2023-11-21T15:26:07;7.50;;;3.35;;
11827;SDS011;5971;49.646;8.568;2023-11-21T15:29:09;6.55;;;3.17;;
11827;SDS011;5971;49.646;8.568;2023-11-21T15:32:12;7.95;;;3.97;;
11827;SDS011;5971;49.646;8.568;2023-11-21T15:35:13;6.03;;;3.47;;
11827;SDS011;5971;49.646;8.568;2023-11-21T15:38:15;7.68;;;3.03;;
11827;SDS011;5971;49.646;8.568;2023-11-21T15:41:17;7.93;;;3.00;;
11827;SDS011;5971;49.646;8.568;2023-11-21T15:44:18;7.25;;;3.25;;
11827;SDS011;5971;49.646;8.568;2023-11-21T15:47:20;8.10;;;3.20;;
11827;SDS011;5971;49.646;8.568;2023-11-21T15:50:21;5.78;;;2.53;;
11827;SDS011;5971;49.646;8.568;2023-11-21T15:53:22;7.32;;;2.97;;
11827;SDS011;5971;49.646;8.568;2023-11-21T15:56:24;6.97;;;3.08;;
11827;SDS011;5971;49.646;8.568;2023-11-21T15:59:26;6.18;;;3.22;;
11827;SDS011;5971;49.646;8.568;2023-11-21T16:02:34;8.35;;;3.67;;
11827;SDS011;5971;49.646;8.568;2023-11-21T16:05:36;5.70;;;3.25;;
11827;SDS011;5971;49.646;8.568;2023-11-21T16:08:37;6.93;;;3.05;;
11827;SDS011;5971;49.646;8.568;2023-11-21T16:11:39;8.30;;;3.63;;
11827;SDS011;5971;49.646;8.568;2023-11-21T16:14:40;8.15;;;3.80;;
11827;SDS011;5971;49.646;8.568;2023-11-21T16:17:49;6.65;;;3.72;;
11827;SDS011;5971;49.646;8.568;2023-11-21T16:20:50;8.18;;;4.40;;
11827;SDS011;5971;49.646;8.568;2023-11-21T16:23:52;7.68;;;4.03;;
11827;SDS011;5971;49.646;8.568;2023-11-21T16:26:53;10.45;;;4.35;;
11827;SDS011;5971;49.646;8.568;2023-11-21T16:29:55;8.63;;;4.43;;
11827;SDS011;5971;49.646;8.568;2023-11-21T16:32:56;12.30;;;5.50;;
11827;SDS011;5971;49.646;8.568;2023-11-21T16:35:57;9.07;;;4.70;;
11827;SDS011;5971;49.646;8.568;2023-11-21T16:38:59;10.23;;;4.50;;
11827;SDS011;5971;49.646;8.568;2023-11-21T16:42:01;7.78;;;3.05;;
11827;SDS011;5971;49.646;8.568;2023-11-21T16:45:02;6.50;;;3.53;;
11827;SDS011;5971;49.646;8.568;2023-11-21T16:48:04;7.30;;;3.35;;
11827;SDS011;5971;49.646;8.568;2023-11-21T16:51:07;7.15;;;3.88;;
11827;SDS011;5971;49.646;8.568;2023-11-21T16:54:13;7.25;;;3.75;;
11827;SDS011;5971;49.646;8.568;2023-11-21T16:57:14;8.02;;;4.07;;
11827;SDS011;5971;49.646;8.568;2023-11-21T17:00:16;8.05;;;4.20;;
11827;SDS011;5971;49.646;8.568;2023-11-21T17:03:19;8.77;;;3.90;;
11827;SDS011;5971;49.646;8.568;2023-11-21T17:06:21;7.70;;;3.90;;
11827;SDS011;5971;49.646;8.568;2023-11-21T17:09:24;7.00;;;3.88;;
11827;SDS011;5971;49.646;8.568;2023-11-21T17:12:25;6.75;;;3.22;;
11827;SDS011;5971;49.646;8.568;2023-11-21T17:15:28;5.93;;;3.17;;
11827;SDS011;5971;49.646;8.568;2023-11-21T17:18:30;5.60;;;2.78;;
11827;SDS011;5971;49.646;8.568;2023-11-21T17:21:31;7.47;;;3.42;;
11827;SDS011;5971;49.646;8.568;2023-11-21T17:24:35;8.63;;;3.97;;
11827;SDS011;5971;49.646;8.568;2023-11-21T17:27:37;8.50;;;3.72;;
11827;SDS011;5971;49.646;8.568;2023-11-21T17:30:39;5.93;;;3.33;;
11827;SDS011;5971;49.646;8.568;2023-11-21T17:33:40;6.47;;;3.40;;
11827;SDS011;5971;49.646;8.568;2023-11-21T17:36:43;5.28;;;2.58;;
11827;SDS011;5971;49.646;8.568;2023-11-21T17:39:44;4.95;;;2.75;;
11827;SDS011;5971;49.646;8.568;2023-11-21T17:42:46;5.90;;;2.97;;
11827;SDS011;5971;49.646;8.568;2023-11-21T17:45:48;7.13;;;3.65;;
11827;SDS011;5971;49.646;8.568;2023-11-21T17:48:50;7.32;;;3.75;;
11827;SDS011;5971;49.646;8.568;2023-11-21T17:51:53;7.32;;;3.53;;
11827;SDS011;5971;49.646;8.568;2023-11-21T17:54:55;9.00;;;4.13;;
11827;SDS011;5971;49.646;8.568;2023-11-21T17:57:56;9.25;;;3.80;;
11827;SDS011;5971;49.646;8.568;2023-11-21T18:00:58;7.90;;;4.53;;
11827;SDS011;5971;49.646;8.568;2023-11-21T18:03:59;9.60;;;4.13;;
11827;SDS011;5971;49.646;8.568;2023-11-21T18:07:01;11.88;;;4.85;;
11827;SDS011;5971;49.646;8.568;2023-11-21T18:10:03;12.88;;;5.65;;
11827;SDS011;5971;49.646;8.568;2023-11-21T18:13:05;10.52;;;5.63;;
11827;SDS011;5971;49.646;8.568;2023-11-21T18:16:07;10.45;;;5.82;;
11827;SDS011;5971;49.646;8.568;2023-11-21T18:19:09;10.80;;;5.75;;
11827;SDS011;5971;49.646;8.568;2023-11-21T18:22:11;11.20;;;5.68;;
11827;SDS011;5971;49.646;8.568;2023-11-21T18:25:12;10.52;;;5.80;;
11827;SDS011;5971;49.646;8.568;2023-11-21T18:28:13;9.07;;;4.93;;
11827;SDS011;5971;49.646;8.568;2023-11-21T18:31:15;7.97;;;4.95;;
11827;SDS011;5971;49.646;8.568;2023-11-21T18:34:17;10.95;;;5.72;;
11827;SDS011;5971;49.646;8.568;2023-11-21T18:37:19;11.10;;;5.55;;
11827;SDS011;5971;49.646;8.568;2023-11-21T18:40:21;10.75;;;5.35;;
11827;SDS011;5971;49.646;8.568;2023-11-21T18:43:22;11.52;;;5.88;;